sensor_id;sensor_type;location;lat;lon;timestamp;temperature;humidity
47368;DHT22;34646;47.964;7.982;2023-07-13T00:01:42;24.10;88.50
47368;DHT22;34646;47.964;7.982;2023-07-13T00:07:43;23.70;88.40
47368;DHT22;34646;47.964;7.982;2023-07-13T00:13:46;24.20;88.80
47368;DHT22;34646;47.964;7.982;2023-07-13T00:19:47;24.00;89.10
47368;DHT22;34646;47.964;7.982;2023-07-13T00:25:48;24.10;80.70
47368;DHT22;34646;47.964;7.982;2023-07-13T00:31:51;24.10;89.30
47368;DHT22;34646;47.964;7.982;2023-07-13T00:37:51;24.20;88.60
47368;DHT22;34646;47.964;7.982;2023-07-13T00:43:52;23.90;89.10
47368;DHT22;34646;47.964;7.982;2023-07-13T00:49:53;24.20;89.20
47368;DHT22;34646;47.964;7.982;2023-07-13T00:55:55;24.20;89.30
47368;DHT22;34646;47.964;7.982;2023-07-13T01:01:56;24.10;89.30
47368;DHT22;34646;47.964;7.982;2023-07-13T01:07:57;24.20;89.20
47368;DHT22;34646;47.964;7.982;2023-07-13T01:13:59;24.10;89.20
47368;DHT22;34646;47.964;7.982;2023-07-13T01:20:01;24.00;89.20
47368;DHT22;34646;47.964;7.982;2023-07-13T01:26:02;24.00;79.90
47368;DHT22;34646;47.964;7.982;2023-07-13T01:32:04;24.10;88.60
47368;DHT22;34646;47.964;7.982;2023-07-13T01:38:04;23.90;80.20
47368;DHT22;34646;47.964;7.982;2023-07-13T01:44:05;23.80;89.00
47368;DHT22;34646;47.964;7.982;2023-07-13T01:50:06;23.60;88.30
47368;DHT22;34646;47.964;7.982;2023-07-13T01:56:08;23.90;89.20
47368;DHT22;34646;47.964;7.982;2023-07-13T02:02:09;24.10;88.90
47368;DHT22;34646;47.964;7.982;2023-07-13T02:08:10;23.90;88.50
47368;DHT22;34646;47.964;7.982;2023-07-13T02:14:10;23.90;89.20
47368;DHT22;34646;47.964;7.982;2023-07-13T02:20:11;23.90;89.10
47368;DHT22;34646;47.964;7.982;2023-07-13T02:26:12;24.00;80.10
47368;DHT22;34646;47.964;7.982;2023-07-13T02:32:13;24.10;89.20
47368;DHT22;34646;47.964;7.982;2023-07-13T02:38:14;23.90;88.60
47368;DHT22;34646;47.964;7.982;2023-07-13T02:44:15;23.90;89.20
47368;DHT22;34646;47.964;7.982;2023-07-13T02:50:15;24.40;80.60
47368;DHT22;34646;47.964;7.982;2023-07-13T02:56:18;24.00;88.80
47368;DHT22;34646;47.964;7.982;2023-07-13T03:02:19;23.90;88.70
47368;DHT22;34646;47.964;7.982;2023-07-13T03:08:20;23.60;89.20
47368;DHT22;34646;47.964;7.982;2023-07-13T03:14:24;23.70;89.00
47368;DHT22;34646;47.964;7.982;2023-07-13T03:20:25;24.30;88.80
47368;DHT22;34646;47.964;7.982;2023-07-13T03:26:25;24.10;89.40
47368;DHT22;34646;47.964;7.982;2023-07-13T03:32:28;24.00;89.40
47368;DHT22;34646;47.964;7.982;2023-07-13T03:38:28;23.90;89.30
47368;DHT22;34646;47.964;7.982;2023-07-13T03:44:30;23.80;88.70
47368;DHT22;34646;47.964;7.982;2023-07-13T03:50:31;22.20;81.10
47368;DHT22;34646;47.964;7.982;2023-07-13T03:56:32;21.70;83.40
47368;DHT22;34646;47.964;7.982;2023-07-13T04:08:36;21.10;84.50
47368;DHT22;34646;47.964;7.982;2023-07-13T04:20:39;20.70;86.20
47368;DHT22;34646;47.964;7.982;2023-07-13T04:26:39;20.70;86.40
47368;DHT22;34646;47.964;7.982;2023-07-13T04:44:47;20.70;77.70
47368;DHT22;34646;47.964;7.982;2023-07-13T04:50:48;20.80;86.60
47368;DHT22;34646;47.964;7.982;2023-07-13T04:56:54;20.60;86.20
47368;DHT22;34646;47.964;7.982;2023-07-13T05:02:56;21.20;86.60
47368;DHT22;34646;47.964;7.982;2023-07-13T05:08:57;21.70;84.40
47368;DHT22;34646;47.964;7.982;2023-07-13T05:14:58;21.50;84.90
47368;DHT22;34646;47.964;7.982;2023-07-13T05:21:05;20.80;87.20
47368;DHT22;34646;47.964;7.982;2023-07-13T05:33:07;21.80;85.70
47368;DHT22;34646;47.964;7.982;2023-07-13T05:39:08;22.30;85.30
47368;DHT22;34646;47.964;7.982;2023-07-13T05:45:09;22.40;84.70
47368;DHT22;34646;47.964;7.982;2023-07-13T05:51:10;21.30;87.50
47368;DHT22;34646;47.964;7.982;2023-07-13T05:57:10;20.90;88.70
47368;DHT22;34646;47.964;7.982;2023-07-13T06:03:11;20.80;88.10
47368;DHT22;34646;47.964;7.982;2023-07-13T06:09:12;21.20;87.80
47368;DHT22;34646;47.964;7.982;2023-07-13T06:15:13;21.70;88.60
47368;DHT22;34646;47.964;7.982;2023-07-13T06:21:19;21.60;87.80
47368;DHT22;34646;47.964;7.982;2023-07-13T06:33:21;21.30;86.40
47368;DHT22;34646;47.964;7.982;2023-07-13T06:39:22;21.50;87.20
47368;DHT22;34646;47.964;7.982;2023-07-13T06:45:23;21.70;75.20
47368;DHT22;34646;47.964;7.982;2023-07-13T06:51:23;21.00;85.30
47368;DHT22;34646;47.964;7.982;2023-07-13T06:57:24;21.70;84.70
47368;DHT22;34646;47.964;7.982;2023-07-13T07:03:25;21.60;84.80
47368;DHT22;34646;47.964;7.982;2023-07-13T07:15:27;21.90;84.00
47368;DHT22;34646;47.964;7.982;2023-07-13T07:21:28;21.70;82.40
47368;DHT22;34646;47.964;7.982;2023-07-13T07:27:29;21.60;79.50
47368;DHT22;34646;47.964;7.982;2023-07-13T07:39:31;21.80;79.50
47368;DHT22;34646;47.964;7.982;2023-07-13T07:45:32;22.00;80.40
47368;DHT22;34646;47.964;7.982;2023-07-13T07:51:33;21.50;70.40
47368;DHT22;34646;47.964;7.982;2023-07-13T07:57:33;22.20;79.70
47368;DHT22;34646;47.964;7.982;2023-07-13T08:03:34;22.00;78.20
47368;DHT22;34646;47.964;7.982;2023-07-13T08:09:35;22.30;79.40
47368;DHT22;34646;47.964;7.982;2023-07-13T08:15:37;22.20;80.70
47368;DHT22;34646;47.964;7.982;2023-07-13T08:21:38;21.90;81.50
47368;DHT22;34646;47.964;7.982;2023-07-13T08:27:38;22.50;82.00
47368;DHT22;34646;47.964;7.982;2023-07-13T08:33:39;22.20;81.90
47368;DHT22;34646;47.964;7.982;2023-07-13T08:39:41;22.60;82.40
47368;DHT22;34646;47.964;7.982;2023-07-13T08:45:47;22.20;82.00
47368;DHT22;34646;47.964;7.982;2023-07-13T08:51:54;23.00;82.70
47368;DHT22;34646;47.964;7.982;2023-07-13T08:58:02;22.50;83.20
47368;DHT22;34646;47.964;7.982;2023-07-13T09:04:14;22.20;83.00
47368;DHT22;34646;47.964;7.982;2023-07-13T09:10:31;22.10;82.90
47368;DHT22;34646;47.964;7.982;2023-07-13T09:16:33;22.20;83.00
47368;DHT22;34646;47.964;7.982;2023-07-13T09:22:36;22.30;83.20
47368;DHT22;34646;47.964;7.982;2023-07-13T09:28:46;22.70;83.50
47368;DHT22;34646;47.964;7.982;2023-07-13T09:34:52;22.30;84.10
47368;DHT22;34646;47.964;7.982;2023-07-13T09:41:03;22.50;84.40
47368;DHT22;34646;47.964;7.982;2023-07-13T09:47:23;22.50;83.60
47368;DHT22;34646;47.964;7.982;2023-07-13T09:53:23;22.50;84.60
47368;DHT22;34646;47.964;7.982;2023-07-13T09:59:31;22.30;83.90
47368;DHT22;34646;47.964;7.982;2023-07-13T10:05:44;22.50;73.10
47368;DHT22;34646;47.964;7.982;2023-07-13T10:11:45;22.30;84.20
47368;DHT22;34646;47.964;7.982;2023-07-13T10:17:46;22.70;76.40
47368;DHT22;34646;47.964;7.982;2023-07-13T10:23:51;22.80;84.70
47368;DHT22;34646;47.964;7.982;2023-07-13T10:30:30;22.70;84.80
47368;DHT22;34646;47.964;7.982;2023-07-13T10:42:36;22.40;75.30
47368;DHT22;34646;47.964;7.982;2023-07-13T10:48:40;23.00;85.00
47368;DHT22;34646;47.964;7.982;2023-07-13T10:54:42;22.60;84.90
47368;DHT22;34646;47.964;7.982;2023-07-13T11:06:57;23.00;85.00
47368;DHT22;34646;47.964;7.982;2023-07-13T11:12:58;22.70;85.80
47368;DHT22;34646;47.964;7.982;2023-07-13T11:25:29;22.90;86.20
47368;DHT22;34646;47.964;7.982;2023-07-13T11:31:33;22.30;85.90
47368;DHT22;34646;47.964;7.982;2023-07-13T11:37:34;22.60;85.60
47368;DHT22;34646;47.964;7.982;2023-07-13T11:43:35;22.60;85.60
47368;DHT22;34646;47.964;7.982;2023-07-13T11:49:43;23.00;85.90
47368;DHT22;34646;47.964;7.982;2023-07-13T11:55:44;23.00;86.10
47368;DHT22;34646;47.964;7.982;2023-07-13T12:01:51;22.80;77.20
47368;DHT22;34646;47.964;7.982;2023-07-13T12:13:56;22.40;86.00
47368;DHT22;34646;47.964;7.982;2023-07-13T12:19:57;22.50;86.90
47368;DHT22;34646;47.964;7.982;2023-07-13T12:25:59;22.80;86.40
47368;DHT22;34646;47.964;7.982;2023-07-13T12:32:00;22.90;87.10
47368;DHT22;34646;47.964;7.982;2023-07-13T12:38:01;22.80;87.00
47368;DHT22;34646;47.964;7.982;2023-07-13T12:50:04;22.60;86.40
47368;DHT22;34646;47.964;7.982;2023-07-13T12:56:13;22.70;86.60
47368;DHT22;34646;47.964;7.982;2023-07-13T13:02:35;22.80;86.80
47368;DHT22;34646;47.964;7.982;2023-07-13T13:08:36;22.80;87.00
47368;DHT22;34646;47.964;7.982;2023-07-13T13:14:37;23.00;88.50
47368;DHT22;34646;47.964;7.982;2023-07-13T13:20:38;23.10;89.70
47368;DHT22;34646;47.964;7.982;2023-07-13T13:26:39;23.20;90.20
47368;DHT22;34646;47.964;7.982;2023-07-13T13:32:42;23.00;90.20
47368;DHT22;34646;47.964;7.982;2023-07-13T13:38:43;23.20;90.50
47368;DHT22;34646;47.964;7.982;2023-07-13T13:44:44;22.80;90.00
47368;DHT22;34646;47.964;7.982;2023-07-13T13:50:45;23.50;90.00
47368;DHT22;34646;47.964;7.982;2023-07-13T13:56:48;23.10;90.00
47368;DHT22;34646;47.964;7.982;2023-07-13T14:02:49;23.30;89.50
47368;DHT22;34646;47.964;7.982;2023-07-13T14:08:52;23.10;89.80
47368;DHT22;34646;47.964;7.982;2023-07-13T14:20:53;23.50;78.10
47368;DHT22;34646;47.964;7.982;2023-07-13T14:26:54;23.20;89.50
47368;DHT22;34646;47.964;7.982;2023-07-13T14:32:55;23.20;89.00
47368;DHT22;34646;47.964;7.982;2023-07-13T14:39:00;23.30;89.40
47368;DHT22;34646;47.964;7.982;2023-07-13T14:45:02;23.30;89.20
47368;DHT22;34646;47.964;7.982;2023-07-13T14:51:02;23.40;89.50
47368;DHT22;34646;47.964;7.982;2023-07-13T14:57:03;23.50;85.70
47368;DHT22;34646;47.964;7.982;2023-07-13T15:03:05;23.10;82.10
47368;DHT22;34646;47.964;7.982;2023-07-13T15:09:10;23.10;88.70
47368;DHT22;34646;47.964;7.982;2023-07-13T15:15:12;23.00;88.70
47368;DHT22;34646;47.964;7.982;2023-07-13T15:21:21;23.10;88.80
47368;DHT22;34646;47.964;7.982;2023-07-13T15:27:22;23.10;89.40
47368;DHT22;34646;47.964;7.982;2023-07-13T15:33:27;23.40;89.40
47368;DHT22;34646;47.964;7.982;2023-07-13T15:39:28;23.50;89.50
47368;DHT22;34646;47.964;7.982;2023-07-13T15:45:31;23.10;88.70
47368;DHT22;34646;47.964;7.982;2023-07-13T15:51:34;23.30;88.90
47368;DHT22;34646;47.964;7.982;2023-07-13T15:57:35;23.50;89.10
47368;DHT22;34646;47.964;7.982;2023-07-13T16:03:36;23.30;89.30
47368;DHT22;34646;47.964;7.982;2023-07-13T16:09:38;23.20;89.30
47368;DHT22;34646;47.964;7.982;2023-07-13T16:15:39;23.60;89.60
47368;DHT22;34646;47.964;7.982;2023-07-13T16:21:46;23.10;89.80
47368;DHT22;34646;47.964;7.982;2023-07-13T16:27:49;23.50;89.80
47368;DHT22;34646;47.964;7.982;2023-07-13T16:33:50;23.00;88.80
47368;DHT22;34646;47.964;7.982;2023-07-13T16:39:56;23.20;89.60
47368;DHT22;34646;47.964;7.982;2023-07-13T16:45:59;23.50;89.60
47368;DHT22;34646;47.964;7.982;2023-07-13T16:52:04;23.40;88.60
47368;DHT22;34646;47.964;7.982;2023-07-13T16:58:05;23.50;89.30
47368;DHT22;34646;47.964;7.982;2023-07-13T17:04:09;23.50;88.60
47368;DHT22;34646;47.964;7.982;2023-07-13T17:10:17;23.40;88.50
47368;DHT22;34646;47.964;7.982;2023-07-13T17:16:20;23.40;89.30
47368;DHT22;34646;47.964;7.982;2023-07-13T17:22:21;23.00;88.50
47368;DHT22;34646;47.964;7.982;2023-07-13T17:28:23;23.50;88.10
47368;DHT22;34646;47.964;7.982;2023-07-13T17:34:23;23.50;87.80
47368;DHT22;34646;47.964;7.982;2023-07-13T17:40:25;23.60;87.70
47368;DHT22;34646;47.964;7.982;2023-07-13T17:46:31;23.30;87.50
47368;DHT22;34646;47.964;7.982;2023-07-13T17:58:33;23.20;88.20
47368;DHT22;34646;47.964;7.982;2023-07-13T18:04:34;23.20;88.40
47368;DHT22;34646;47.964;7.982;2023-07-13T18:10:37;23.30;87.90
47368;DHT22;34646;47.964;7.982;2023-07-13T18:16:39;23.50;88.20
47368;DHT22;34646;47.964;7.982;2023-07-13T18:22:40;23.20;87.80
47368;DHT22;34646;47.964;7.982;2023-07-13T18:28:42;23.20;87.60
47368;DHT22;34646;47.964;7.982;2023-07-13T18:34:43;23.30;87.70
47368;DHT22;34646;47.964;7.982;2023-07-13T18:40:44;23.20;87.70
47368;DHT22;34646;47.964;7.982;2023-07-13T18:46:44;23.40;87.90
47368;DHT22;34646;47.964;7.982;2023-07-13T18:52:47;23.30;87.90
47368;DHT22;34646;47.964;7.982;2023-07-13T18:58:49;23.20;87.60
47368;DHT22;34646;47.964;7.982;2023-07-13T19:04:50;23.20;82.80
47368;DHT22;34646;47.964;7.982;2023-07-13T19:10:52;23.20;85.20
47368;DHT22;34646;47.964;7.982;2023-07-13T19:16:53;23.60;85.80
47368;DHT22;34646;47.964;7.982;2023-07-13T19:23:00;23.40;84.90
47368;DHT22;34646;47.964;7.982;2023-07-13T19:29:01;23.50;85.10
47368;DHT22;34646;47.964;7.982;2023-07-13T19:35:03;23.40;85.90
47368;DHT22;34646;47.964;7.982;2023-07-13T19:41:05;23.40;85.80
47368;DHT22;34646;47.964;7.982;2023-07-13T19:47:11;23.30;86.50
47368;DHT22;34646;47.964;7.982;2023-07-13T19:53:16;23.10;86.00
47368;DHT22;34646;47.964;7.982;2023-07-13T19:59:24;23.40;86.50
47368;DHT22;34646;47.964;7.982;2023-07-13T20:05:26;23.40;87.10
47368;DHT22;34646;47.964;7.982;2023-07-13T20:11:27;23.50;86.30
47368;DHT22;34646;47.964;7.982;2023-07-13T20:17:32;23.20;86.70
47368;DHT22;34646;47.964;7.982;2023-07-13T20:23:34;23.20;85.80
47368;DHT22;34646;47.964;7.982;2023-07-13T20:29:34;23.20;86.00
47368;DHT22;34646;47.964;7.982;2023-07-13T20:35:35;23.40;85.60
47368;DHT22;34646;47.964;7.982;2023-07-13T20:41:36;23.40;82.90
47368;DHT22;34646;47.964;7.982;2023-07-13T20:47:39;23.50;85.40
47368;DHT22;34646;47.964;7.982;2023-07-13T20:53:41;23.00;85.00
47368;DHT22;34646;47.964;7.982;2023-07-13T20:59:42;23.40;85.60
47368;DHT22;34646;47.964;7.982;2023-07-13T21:05:43;23.00;84.60
47368;DHT22;34646;47.964;7.982;2023-07-13T21:11:44;23.00;84.60
47368;DHT22;34646;47.964;7.982;2023-07-13T21:17:49;23.40;84.60
47368;DHT22;34646;47.964;7.982;2023-07-13T21:23:52;23.60;84.50
47368;DHT22;34646;47.964;7.982;2023-07-13T21:35:54;23.30;84.10
47368;DHT22;34646;47.964;7.982;2023-07-13T21:41:55;23.60;75.60
47368;DHT22;34646;47.964;7.982;2023-07-13T21:47:57;23.40;84.60
47368;DHT22;34646;47.964;7.982;2023-07-13T21:53:58;23.20;83.60
47368;DHT22;34646;47.964;7.982;2023-07-13T21:59:58;23.00;84.00
47368;DHT22;34646;47.964;7.982;2023-07-13T22:05:59;23.10;84.00
47368;DHT22;34646;47.964;7.982;2023-07-13T22:12:00;22.70;83.10
47368;DHT22;34646;47.964;7.982;2023-07-13T22:18:10;22.90;73.90
47368;DHT22;34646;47.964;7.982;2023-07-13T22:24:15;23.30;83.80
47368;DHT22;34646;47.964;7.982;2023-07-13T22:30:18;23.10;82.90
47368;DHT22;34646;47.964;7.982;2023-07-13T22:36:18;23.30;83.10
47368;DHT22;34646;47.964;7.982;2023-07-13T22:42:19;23.20;83.30
47368;DHT22;34646;47.964;7.982;2023-07-13T22:48:26;23.50;83.30
47368;DHT22;34646;47.964;7.982;2023-07-13T22:54:27;23.20;83.30
47368;DHT22;34646;47.964;7.982;2023-07-13T23:00:28;22.90;82.30
47368;DHT22;34646;47.964;7.982;2023-07-13T23:06:33;22.90;82.20
47368;DHT22;34646;47.964;7.982;2023-07-13T23:12:34;23.40;83.10
47368;DHT22;34646;47.964;7.982;2023-07-13T23:18:35;23.00;82.40
47368;DHT22;34646;47.964;7.982;2023-07-13T23:24:37;23.20;82.80
47368;DHT22;34646;47.964;7.982;2023-07-13T23:30:43;22.90;81.80
47368;DHT22;34646;47.964;7.982;2023-07-13T23:36:45;23.20;82.00
47368;DHT22;34646;47.964;7.982;2023-07-13T23:42:46;22.90;81.70
47368;DHT22;34646;47.964;7.982;2023-07-13T23:48:47;23.10;73.60
47368;DHT22;34646;47.964;7.982;2023-07-13T23:54:48;23.20;81.70
